Time;durP1;ratioP1;P1;durP2;ratioP2;P2;SDS_P1;SDS_P2;PMS_P1;PMS_P2;Temp;Humidity;BMP_temperature;BMP_pressure;BME280_temperature;BME280_humidity;BME280_pressure;Samples;Min_cycle;Max_cycle;Signal;HPM_P1;HPM_P2
2021/06/25 00:00:33;;;;;;;0.30;0.30;;;18.20;99.90;;;;;;4431200;32;20061;-75
2021/06/25 00:02:58;;;;;;;13.80;1.92;;;18.20;99.90;;;;;;4431820;32;20061;-75
2021/06/25 00:05:24;;;;;;;0.65;0.65;;;18.30;99.90;;;;;;4431878;32;20524;-75
2021/06/25 00:07:49;;;;;;;1.40;0.47;;;18.30;99.90;;;;;;4430870;32;20074;-75
2021/06/25 00:10:15;;;;;;;0.50;0.50;;;18.20;99.90;;;;;;4432206;32;20068;-75
2021/06/25 00:12:40;;;;;;;0.88;0.50;;;18.20;99.90;;;;;;4431035;32;20400;-75
2021/06/25 00:15:08;;;;;;;0.30;0.30;;;18.20;99.90;;;;;;4431710;32;20069;-75
2021/06/25 00:17:35;;;;;;;0.30;0.30;;;18.20;99.90;;;;;;4431655;32;20065;-76
2021/06/25 00:20:00;;;;;;;0.40;0.40;;;18.10;99.90;;;;;;4432293;32;20577;-76
2021/06/25 00:22:26;;;;;;;1.42;1.05;;;18.00;99.90;;;;;;4431255;32;20069;-76
2021/06/25 00:24:52;;;;;;;0.30;0.30;;;17.90;99.90;;;;;;4431499;32;20077;-76
2021/06/25 00:27:17;;;;;;;0.30;0.30;;;17.80;99.90;;;;;;4430448;32;20065;-76
2021/06/25 00:29:43;;;;;;;0.40;0.40;;;17.90;99.90;;;;;;4430996;32;20138;-75
2021/06/25 00:32:08;;;;;;;0.37;0.37;;;17.90;99.90;;;;;;4425642;32;20115;-75
2021/06/25 00:34:34;;;;;;;0.37;0.37;;;18.00;99.90;;;;;;4416567;32;20120;-75
2021/06/25 00:36:59;;;;;;;0.47;0.43;;;17.90;99.90;;;;;;4416164;32;20073;-75
2021/06/25 00:39:25;;;;;;;0.70;0.40;;;17.90;99.90;;;;;;4415828;32;20093;-75
2021/06/25 00:41:51;;;;;;;0.50;0.40;;;17.90;99.90;;;;;;4415100;32;20083;-75
2021/06/25 00:44:18;;;;;;;0.30;0.30;;;18.00;99.90;;;;;;4415842;32;20169;-75
2021/06/25 00:46:44;;;;;;;0.40;0.40;;;18.00;99.90;;;;;;4416019;32;20086;-75
2021/06/25 00:49:11;;;;;;;1.10;0.52;;;18.00;99.90;;;;;;4416361;32;20069;-75
2021/06/25 00:51:37;;;;;;;0.30;0.30;;;17.90;99.90;;;;;;4417229;32;20401;-75
2021/06/25 00:54:03;;;;;;;0.32;0.32;;;17.90;99.90;;;;;;4415265;32;20093;-75
2021/06/25 00:56:28;;;;;;;0.40;0.40;;;17.90;99.90;;;;;;4415281;32;20069;-75
2021/06/25 00:58:54;;;;;;;0.55;0.55;;;17.90;99.90;;;;;;4415622;32;20469;-75
2021/06/25 01:01:19;;;;;;;1.02;0.60;;;18.00;99.90;;;;;;4415195;32;20166;-75
2021/06/25 01:03:45;;;;;;;0.50;0.50;;;18.00;99.90;;;;;;4415704;32;20073;-75
2021/06/25 01:06:11;;;;;;;0.28;0.28;;;18.00;99.90;;;;;;4415424;32;20061;-75
2021/06/25 01:08:37;;;;;;;0.43;0.43;;;17.90;99.90;;;;;;4415076;32;20077;-76
2021/06/25 01:11:04;;;;;;;0.50;0.50;;;17.80;99.90;;;;;;4415912;32;20079;-76
2021/06/25 01:13:29;;;;;;;0.45;0.45;;;17.80;99.90;;;;;;4415626;32;20069;-76
2021/06/25 01:15:55;;;;;;;0.45;0.45;;;17.70;99.90;;;;;;4415373;32;20121;-76
2021/06/25 01:18:20;;;;;;;0.57;0.52;;;17.70;99.90;;;;;;4415079;32;20079;-76
2021/06/25 01:20:46;;;;;;;0.40;0.40;;;17.70;99.90;;;;;;4415558;32;20073;-76
2021/06/25 01:23:12;;;;;;;0.40;0.40;;;17.60;99.90;;;;;;4414864;32;20065;-76
2021/06/25 01:25:37;;;;;;;0.37;0.37;;;17.60;99.90;;;;;;4415054;32;20085;-76
2021/06/25 01:28:06;;;;;;;0.50;0.50;;;17.70;99.90;;;;;;4414944;32;20069;-76
2021/06/25 01:30:36;;;;;;;0.50;0.50;;;17.80;99.90;;;;;;4414665;32;20125;-76
2021/06/25 01:33:05;;;;;;;0.60;0.55;;;17.90;99.90;;;;;;4427917;32;20502;-76
2021/06/25 01:35:30;;;;;;;0.68;0.60;;;18.00;99.90;;;;;;4430917;32;20061;-76
2021/06/25 01:37:56;;;;;;;0.40;0.40;;;18.00;99.90;;;;;;4430238;32;20068;-76
2021/06/25 01:40:23;;;;;;;0.32;0.32;;;18.00;99.90;;;;;;4430729;32;20189;-76
2021/06/25 01:42:48;;;;;;;0.40;0.40;;;18.00;99.90;;;;;;4431210;32;20169;-75
2021/06/25 01:45:17;;;;;;;1.55;0.50;;;18.00;99.90;;;;;;4430501;32;20086;-75
2021/06/25 01:47:44;;;;;;;1.52;0.50;;;18.00;99.90;;;;;;4430909;32;20082;-75
2021/06/25 01:50:13;;;;;;;0.30;0.30;;;17.90;99.90;;;;;;4431956;32;20074;-75
2021/06/25 01:52:44;;;;;;;0.50;0.50;;;17.80;99.90;;;;;;4430160;32;20074;-75
2021/06/25 01:55:10;;;;;;;0.80;0.80;;;17.80;99.90;;;;;;4430645;32;20428;-76
2021/06/25 01:57:36;;;;;;;0.50;0.50;;;17.80;99.90;;;;;;4431354;32;20082;-76
2021/06/25 02:00:02;;;;;;;1.33;0.52;;;17.80;99.90;;;;;;4429879;32;20069;-76
2021/06/25 02:02:27;;;;;;;2.20;0.43;;;17.80;99.90;;;;;;4430913;32;20069;-76
2021/06/25 02:04:53;;;;;;;0.43;0.40;;;17.70;99.90;;;;;;4430114;32;20086;-75
2021/06/25 02:07:18;;;;;;;2.85;1.27;;;17.80;99.90;;;;;;4429628;32;20066;-75
2021/06/25 02:09:44;;;;;;;0.25;0.25;;;17.80;99.90;;;;;;4430749;32;20122;-75
2021/06/25 02:12:09;;;;;;;0.52;0.52;;;17.80;99.90;;;;;;4429538;32;20120;-75
2021/06/25 02:14:35;;;;;;;0.75;0.60;;;17.80;99.90;;;;;;4429957;32;20069;-75
2021/06/25 02:17:00;;;;;;;1.00;0.70;;;17.80;99.90;;;;;;4430604;32;20421;-75
2021/06/25 02:19:26;;;;;;;2.47;0.60;;;17.90;99.90;;;;;;4430388;32;20127;-75
2021/06/25 02:21:51;;;;;;;0.40;0.40;;;17.90;99.90;;;;;;4431551;32;20061;-75
2021/06/25 02:24:17;;;;;;;0.45;0.45;;;17.80;99.90;;;;;;4429778;32;20081;-75
2021/06/25 02:26:43;;;;;;;0.82;0.65;;;17.90;99.90;;;;;;4429553;32;20077;-75
2021/06/25 02:29:09;;;;;;;0.95;0.80;;;17.80;99.90;;;;;;4430578;32;20065;-76
2021/06/25 02:31:34;;;;;;;0.75;0.40;;;17.80;99.90;;;;;;4426639;32;20078;-76
2021/06/25 02:34:00;;;;;;;3.55;0.68;;;17.80;99.90;;;;;;4414772;32;20065;-76
2021/06/25 02:36:25;;;;;;;0.80;0.75;;;17.80;99.90;;;;;;4414589;32;20070;-76
2021/06/25 02:38:51;;;;;;;0.37;0.37;;;17.90;99.90;;;;;;4415211;32;20077;-76
2021/06/25 02:41:17;;;;;;;0.40;0.40;;;17.80;99.90;;;;;;4414062;32;20511;-76
2021/06/25 02:43:43;;;;;;;0.40;0.40;;;17.80;99.90;;;;;;4414524;32;20090;-76
2021/06/25 02:46:09;;;;;;;0.80;0.80;;;17.70;99.90;;;;;;4414473;32;20058;-76
2021/06/25 02:48:34;;;;;;;0.90;0.90;;;17.60;99.90;;;;;;4414225;32;20082;-76
2021/06/25 02:51:00;;;;;;;1.62;0.70;;;17.60;99.90;;;;;;4414867;32;20065;-76
2021/06/25 02:53:25;;;;;;;0.98;0.55;;;17.60;99.90;;;;;;4414108;32;20092;-76
2021/06/25 02:55:51;;;;;;;1.20;0.75;;;17.60;99.90;;;;;;4414366;32;20404;-76
2021/06/25 02:58:21;;;;;;;0.75;0.60;;;17.60;99.90;;;;;;4414240;32;20417;-76
2021/06/25 03:00:48;;;;;;;0.50;0.50;;;17.60;99.90;;;;;;4413860;32;20069;-75
2021/06/25 03:03:14;;;;;;;2.65;1.02;;;17.60;99.90;;;;;;4413942;32;20083;-75
2021/06/25 03:05:40;;;;;;;0.62;0.62;;;17.60;99.90;;;;;;4414773;32;20062;-75
2021/06/25 03:08:05;;;;;;;7.78;0.68;;;17.60;99.90;;;;;;4413545;32;20073;-75
2021/06/25 03:10:31;;;;;;;0.40;0.40;;;17.50;99.90;;;;;;4415012;32;20537;-76
2021/06/25 03:12:56;;;;;;;1.50;0.70;;;17.50;99.90;;;;;;4414269;32;20069;-76
2021/06/25 03:15:22;;;;;;;0.77;0.62;;;17.40;99.90;;;;;;4415262;32;20069;-76
2021/06/25 03:17:47;;;;;;;0.73;0.50;;;17.40;99.90;;;;;;4414313;32;20073;-75
2021/06/25 03:20:13;;;;;;;1.45;0.60;;;17.50;99.90;;;;;;4415896;32;20078;-75
2021/06/25 03:22:39;;;;;;;0.70;0.70;;;17.50;99.90;;;;;;4413768;32;20082;-75
2021/06/25 03:25:07;;;;;;;0.52;0.52;;;17.50;99.90;;;;;;4414400;32;20452;-75
2021/06/25 03:27:33;;;;;;;1.55;0.75;;;17.50;99.90;;;;;;4413362;32;20128;-76
2021/06/25 03:29:58;;;;;;;0.57;0.50;;;17.60;99.90;;;;;;4413754;32;20488;-76
2021/06/25 03:32:24;;;;;;;0.60;0.60;;;17.70;99.90;;;;;;4416682;32;20093;-76
2021/06/25 03:34:49;;;;;;;4.07;0.50;;;17.70;99.90;;;;;;4417196;32;20169;-76
2021/06/25 03:37:15;;;;;;;0.50;0.50;;;17.70;99.90;;;;;;4416353;32;20097;-75
2021/06/25 03:39:41;;;;;;;1.73;0.60;;;17.70;99.90;;;;;;4416982;32;20061;-76
2021/06/25 03:42:06;;;;;;;0.60;0.60;;;17.70;99.90;;;;;;4416224;32;20079;-76
2021/06/25 03:44:32;;;;;;;3.28;0.93;;;17.80;99.90;;;;;;4417680;32;20569;-76
2021/06/25 03:46:57;;;;;;;0.57;0.57;;;17.80;99.90;;;;;;4416698;32;20511;-76
2021/06/25 03:49:24;;;;;;;0.80;0.60;;;17.80;99.90;;;;;;4417233;32;20124;-76
2021/06/25 03:51:49;;;;;;;0.60;0.60;;;17.70;99.90;;;;;;4417116;32;20073;-76
2021/06/25 03:54:15;;;;;;;1.23;0.98;;;17.80;99.90;;;;;;4415933;32;20128;-76
2021/06/25 03:56:40;;;;;;;2.05;0.80;;;17.70;99.90;;;;;;4416391;32;20077;-76
2021/06/25 03:59:06;;;;;;;0.70;0.70;;;17.60;99.90;;;;;;4418153;32;20061;-76
2021/06/25 04:01:31;;;;;;;8.48;0.80;;;17.50;99.90;;;;;;4417580;32;20073;-75
2021/06/25 04:03:57;;;;;;;0.70;0.70;;;17.50;99.90;;;;;;4416342;32;20062;-75
2021/06/25 04:06:22;;;;;;;23.38;0.90;;;17.50;99.90;;;;;;4417599;32;20069;-76
2021/06/25 04:08:51;;;;;;;0.62;0.50;;;17.60;99.90;;;;;;4416944;32;20138;-76
2021/06/25 04:11:18;;;;;;;0.75;0.70;;;17.60;99.90;;;;;;4416357;32;20081;-75
2021/06/25 04:13:43;;;;;;;3.20;1.00;;;17.70;99.90;;;;;;4416115;32;20125;-75
2021/06/25 04:16:09;;;;;;;1.45;0.68;;;17.70;99.90;;;;;;4416855;32;20070;-76
2021/06/25 04:18:35;;;;;;;1.30;0.70;;;17.70;99.90;;;;;;4416794;32;20090;-75
2021/06/25 04:21:00;;;;;;;6.50;0.65;;;17.80;99.90;;;;;;4417117;32;20069;-75
2021/06/25 04:23:26;;;;;;;1.02;0.60;;;17.90;99.90;;;;;;4416493;32;20069;-75
2021/06/25 04:25:52;;;;;;;1.62;0.82;;;17.90;99.90;;;;;;4416406;32;20082;-75
2021/06/25 04:28:18;;;;;;;0.52;0.52;;;18.00;99.90;;;;;;4416107;32;20065;-75
2021/06/25 04:30:44;;;;;;;0.70;0.70;;;18.00;99.90;;;;;;4416817;32;20078;-75
2021/06/25 04:33:13;;;;;;;0.52;0.52;;;18.00;99.90;;;;;;4417046;32;20082;-75
2021/06/25 04:35:39;;;;;;;0.35;0.35;;;18.10;99.90;;;;;;4416005;32;20085;-75
2021/06/25 04:38:05;;;;;;;0.50;0.50;;;18.10;99.90;;;;;;4415456;32;20065;-75
2021/06/25 04:40:31;;;;;;;0.82;0.70;;;18.10;99.90;;;;;;4416551;32;20082;-75
2021/06/25 04:42:58;;;;;;;10.00;0.85;;;18.10;99.90;;;;;;4415352;32;20131;-75
2021/06/25 04:45:23;;;;;;;0.60;0.60;;;18.10;99.90;;;;;;4415521;32;20078;-75
2021/06/25 04:47:49;;;;;;;1.75;0.80;;;18.20;99.90;;;;;;4415689;32;20069;-75
2021/06/25 04:50:15;;;;;;;0.57;0.57;;;18.20;99.90;;;;;;4417300;32;20136;-74
2021/06/25 04:52:41;;;;;;;0.55;0.55;;;18.20;99.90;;;;;;4420412;32;20272;-75
2021/06/25 04:55:07;;;;;;;0.80;0.80;;;18.20;99.90;;;;;;4418381;32;20499;-74
2021/06/25 04:57:33;;;;;;;1.70;0.73;;;18.30;99.90;;;;;;4415764;32;20061;-74
2021/06/25 04:59:59;;;;;;;0.90;0.77;;;18.20;99.90;;;;;;4426262;32;20539;-74
2021/06/25 05:02:24;;;;;;;0.55;0.55;;;18.10;99.90;;;;;;4422372;32;20193;-74
2021/06/25 05:04:50;;;;;;;1.85;0.60;;;18.00;99.90;;;;;;4426808;32;20065;-74
2021/06/25 05:07:15;;;;;;;0.40;0.40;;;18.10;99.90;;;;;;4421606;32;20520;-74
2021/06/25 05:09:41;;;;;;;0.50;0.50;;;18.10;99.90;;;;;;4416150;32;20082;-74
2021/06/25 05:12:07;;;;;;;0.75;0.70;;;18.20;99.90;;;;;;4427587;32;20196;-75
2021/06/25 05:14:32;;;;;;;1.17;0.57;;;18.30;99.90;;;;;;4429031;32;20078;-75
2021/06/25 05:16:58;;;;;;;2.28;0.88;;;18.40;99.90;;;;;;4430930;32;20077;-75
2021/06/25 05:19:24;;;;;;;0.40;0.40;;;18.40;99.90;;;;;;4418826;32;20086;-74
2021/06/25 05:21:49;;;;;;;0.57;0.57;;;18.40;99.90;;;;;;4416806;32;20125;-74
2021/06/25 05:24:15;;;;;;;0.98;0.60;;;18.30;99.90;;;;;;4416318;32;20073;-74
2021/06/25 05:26:40;;;;;;;1.02;0.93;;;18.30;99.90;;;;;;4416769;32;20508;-74
2021/06/25 05:29:06;;;;;;;11.88;0.57;;;18.40;99.90;;;;;;4415943;32;20109;-75
2021/06/25 05:31:31;;;;;;;0.45;0.45;;;18.40;99.90;;;;;;4415187;32;20065;-75
2021/06/25 05:33:57;;;;;;;6.90;1.17;;;18.50;99.90;;;;;;4415480;32;20085;-75
2021/06/25 05:36:23;;;;;;;0.75;0.75;;;18.50;99.90;;;;;;4415616;32;20073;-75
2021/06/25 05:38:49;;;;;;;5.68;0.80;;;18.60;99.90;;;;;;4414555;32;20125;-75
2021/06/25 05:41:16;;;;;;;1.15;0.68;;;18.70;99.90;;;;;;4414575;32;20890;-75
2021/06/25 05:43:42;;;;;;;0.77;0.60;;;18.70;99.90;;;;;;4416187;32;20085;-75
2021/06/25 05:46:08;;;;;;;1.23;0.55;;;18.70;99.90;;;;;;4414654;32;20116;-75
2021/06/25 05:48:34;;;;;;;0.40;0.40;;;18.70;99.90;;;;;;4430003;32;20061;-75
2021/06/25 05:50:59;;;;;;;0.88;0.50;;;18.70;99.90;;;;;;4432003;32;20531;-75
2021/06/25 05:53:25;;;;;;;0.30;0.30;;;18.70;99.90;;;;;;4430588;32;20077;-75
2021/06/25 05:55:51;;;;;;;0.30;0.30;;;18.80;99.90;;;;;;4417086;32;20104;-75
2021/06/25 05:58:17;;;;;;;1.10;0.60;;;18.80;99.90;;;;;;4424765;32;20142;-75
2021/06/25 06:00:42;;;;;;;0.35;0.35;;;18.80;99.90;;;;;;4429997;32;20564;-75
2021/06/25 06:03:08;;;;;;;0.40;0.40;;;18.90;99.90;;;;;;4431005;32;20124;-75
2021/06/25 06:05:33;;;;;;;0.57;0.50;;;19.00;99.90;;;;;;4431647;32;20077;-75
2021/06/25 06:07:59;;;;;;;0.22;0.22;;;19.00;99.90;;;;;;4428650;32;20135;-75
2021/06/25 06:10:24;;;;;;;0.40;0.40;;;19.00;99.90;;;;;;4431000;32;20057;-75
2021/06/25 06:12:50;;;;;;;0.30;0.30;;;19.00;99.90;;;;;;4430194;32;20264;-75
2021/06/25 06:15:17;;;;;;;1.55;0.55;;;19.10;99.90;;;;;;4429890;32;20078;-75
2021/06/25 06:17:46;;;;;;;0.40;0.40;;;19.20;99.90;;;;;;4430413;32;20081;-75
2021/06/25 06:20:17;;;;;;;0.43;0.43;;;19.30;99.90;;;;;;4430121;32;20065;-75
2021/06/25 06:33:54;;;;;;;0.40;0.40;;;19.20;99.90;;;;;;4414558;32;20062;-75
2021/06/25 06:36:23;;;;;;;0.40;0.40;;;19.20;99.90;;;;;;4414070;32;20120;-75
2021/06/25 06:38:50;;;;;;;0.40;0.40;;;19.40;99.90;;;;;;4417627;32;20082;-75
2021/06/25 06:41:16;;;;;;;0.40;0.40;;;19.50;99.90;;;;;;4421137;32;20474;-76
2021/06/25 06:43:43;;;;;;;1.98;0.88;;;19.60;99.90;;;;;;4415303;32;20136;-76
2021/06/25 06:46:10;;;;;;;0.57;0.57;;;19.60;99.90;;;;;;4414632;32;20480;-76
2021/06/25 06:48:37;;;;;;;0.50;0.50;;;19.70;99.90;;;;;;4429651;32;20116;-76
2021/06/25 06:51:03;;;;;;;4.25;0.65;;;19.70;99.90;;;;;;4429704;32;20160;-76
2021/06/25 06:53:29;;;;;;;0.65;0.30;;;19.70;99.90;;;;;;4418910;32;20129;-76
2021/06/25 06:55:54;;;;;;;0.30;0.30;;;19.80;99.90;;;;;;4426448;32;20081;-76
2021/06/25 06:58:20;;;;;;;0.47;0.47;;;19.80;99.90;;;;;;4416487;32;20073;-76
2021/06/25 07:00:46;;;;;;;0.60;0.57;;;19.70;99.90;;;;;;4414266;32;20129;-76
2021/06/25 07:03:12;;;;;;;0.30;0.30;;;19.70;99.90;;;;;;4427347;32;20511;-76
2021/06/25 07:05:37;;;;;;;2.33;0.70;;;19.70;99.90;;;;;;4429683;32;20478;-76
2021/06/25 07:08:03;;;;;;;0.43;0.43;;;19.70;99.90;;;;;;4416964;32;20065;-76
2021/06/25 07:10:30;;;;;;;0.40;0.40;;;19.70;99.90;;;;;;4413928;32;20537;-76
2021/06/25 07:12:55;;;;;;;0.40;0.40;;;19.60;99.90;;;;;;4423598;32;20077;-76
2021/06/25 07:15:21;;;;;;;0.40;0.40;;;19.50;99.90;;;;;;4429385;32;20155;-75
2021/06/25 07:17:47;;;;;;;0.40;0.40;;;19.50;99.90;;;;;;4428161;32;20069;-76
2021/06/25 07:20:12;;;;;;;0.35;0.35;;;19.60;99.90;;;;;;4430357;32;20069;-76
2021/06/25 07:22:38;;;;;;;0.43;0.43;;;19.60;99.90;;;;;;4422772;32;20069;-76
2021/06/25 07:25:04;;;;;;;0.30;0.30;;;19.60;99.90;;;;;;4414748;32;20118;-76
2021/06/25 07:27:30;;;;;;;0.30;0.30;;;19.60;99.90;;;;;;4414430;32;20259;-76
2021/06/25 07:29:56;;;;;;;0.30;0.30;;;19.70;99.90;;;;;;4413412;32;20174;-76
2021/06/25 07:32:22;;;;;;;0.30;0.30;;;19.70;99.90;;;;;;4423026;32;20125;-76
2021/06/25 07:34:47;;;;;;;0.40;0.40;;;19.70;99.90;;;;;;4426243;32;20132;-75
2021/06/25 07:37:13;;;;;;;11.60;0.70;;;19.60;99.90;;;;;;4414753;32;20157;-76
2021/06/25 07:39:38;;;;;;;0.52;0.52;;;19.60;99.90;;;;;;4417255;32;20424;-76
2021/06/25 07:42:05;;;;;;;0.30;0.30;;;19.60;99.90;;;;;;4428629;32;20073;-76
2021/06/25 07:44:30;;;;;;;0.28;0.28;;;19.80;99.90;;;;;;4427040;32;20122;-76
2021/06/25 07:46:56;;;;;;;0.30;0.30;;;20.00;99.90;;;;;;4424890;32;20074;-76
2021/06/25 07:49:21;;;;;;;0.50;0.50;;;20.20;99.90;;;;;;4414365;32;20079;-76
2021/06/25 07:51:48;;;;;;;0.43;0.43;;;20.30;99.90;;;;;;4413896;32;20524;-76
2021/06/25 07:54:14;;;;;;;0.40;0.40;;;20.30;99.90;;;;;;4414048;32;20503;-76
2021/06/25 07:56:39;;;;;;;0.62;0.62;;;20.40;99.90;;;;;;4412623;32;20069;-76
2021/06/25 07:59:05;;;;;;;0.40;0.40;;;20.50;99.90;;;;;;4427280;32;20065;-76
2021/06/25 08:01:31;;;;;;;0.40;0.40;;;20.50;99.90;;;;;;4428812;32;20524;-76
2021/06/25 08:03:56;;;;;;;0.65;0.52;;;20.50;99.90;;;;;;4430017;32;20127;-76
2021/06/25 08:06:22;;;;;;;0.20;0.20;;;20.50;99.90;;;;;;4423886;32;20128;-76
2021/06/25 08:08:47;;;;;;;0.62;0.62;;;20.50;99.90;;;;;;4413151;32;20527;-76
2021/06/25 08:11:13;;;;;;;1.05;0.40;;;20.50;99.90;;;;;;4426499;32;20069;-76
2021/06/25 08:13:39;;;;;;;0.30;0.30;;;20.60;99.90;;;;;;4418177;32;20108;-76
2021/06/25 08:16:04;;;;;;;0.40;0.40;;;20.80;99.90;;;;;;4413490;32;20090;-76
2021/06/25 08:18:30;;;;;;;0.85;0.80;;;21.10;99.90;;;;;;4424750;32;20069;-76
2021/06/25 08:20:56;;;;;;;2.03;0.75;;;21.50;99.90;;;;;;4432664;32;20077;-76
2021/06/25 08:23:21;;;;;;;0.20;0.20;;;21.80;99.90;;;;;;4419088;32;20073;-75
2021/06/25 08:25:47;;;;;;;1.35;0.45;;;21.90;99.90;;;;;;4415643;32;20117;-76
2021/06/25 08:28:13;;;;;;;0.73;0.73;;;21.70;99.90;;;;;;4415979;32;20066;-77
2021/06/25 08:30:38;;;;;;;0.43;0.43;;;21.70;99.90;;;;;;4416073;32;20070;-77
2021/06/25 08:33:04;;;;;;;0.40;0.40;;;21.70;99.90;;;;;;4428462;32;20072;-75
2021/06/25 08:35:29;;;;;;;21.83;1.30;;;21.50;99.90;;;;;;4431414;32;20085;-74
2021/06/25 08:37:55;;;;;;;0.90;0.40;;;21.30;99.90;;;;;;4430934;32;20510;-77
2021/06/25 08:40:22;;;;;;;0.30;0.30;;;21.20;99.90;;;;;;4421442;32;20073;-76
2021/06/25 08:42:47;;;;;;;0.35;0.35;;;21.10;99.90;;;;;;4415736;32;20057;-77
2021/06/25 08:45:14;;;;;;;0.30;0.30;;;21.10;99.90;;;;;;4417615;32;20174;-75
2021/06/25 08:47:43;;;;;;;0.50;0.50;;;21.10;99.90;;;;;;4416107;32;20074;-76
2021/06/25 08:50:11;;;;;;;1.15;0.52;;;21.20;99.90;;;;;;4430188;32;20093;-76
2021/06/25 08:52:37;;;;;;;0.40;0.40;;;21.50;99.90;;;;;;4430971;32;20081;-76
2021/06/25 08:55:03;;;;;;;0.30;0.28;;;21.80;99.90;;;;;;4423592;32;20061;-76
2021/06/25 08:57:33;;;;;;;0.55;0.55;;;21.90;99.90;;;;;;4426819;32;20073;-76
2021/06/25 08:59:59;;;;;;;0.30;0.30;;;22.10;99.90;;;;;;4428986;32;20070;-76
2021/06/25 09:02:31;;;;;;;0.30;0.30;;;22.10;99.90;;;;;;4431530;32;20061;-76
2021/06/25 09:04:57;;;;;;;0.25;0.25;;;22.30;99.90;;;;;;4415790;32;20078;-76
2021/06/25 09:07:41;;;;;;;0.43;0.43;;;22.40;99.90;;;;;;4423548;32;20065;-76
2021/06/25 09:10:10;;;;;;;0.50;0.50;;;22.50;99.90;;;;;;4431605;32;20124;-76
2021/06/25 09:12:36;;;;;;;0.43;0.43;;;22.40;99.90;;;;;;4419730;32;20460;-76
2021/06/25 09:15:11;;;;;;;0.22;0.22;;;22.40;99.90;;;;;;4415680;32;20062;-76
2021/06/25 09:17:59;;;;;;;0.40;0.40;;;22.30;99.90;;;;;;4424415;32;20522;-76
2021/06/25 09:20:30;;;;;;;0.45;0.45;;;22.20;99.90;;;;;;4419960;32;20077;-76
2021/06/25 09:22:55;;;;;;;;;;;22.20;99.90;;;;;;4430176;32;20069;-76
2021/06/25 09:25:21;;;;;;;0.43;0.43;;;22.10;99.90;;;;;;4431161;32;19973;-76
2021/06/25 09:27:55;;;;;;;0.95;0.70;;;21.90;99.90;;;;;;4422213;32;20163;-75
2021/06/25 09:30:20;;;;;;;2.37;1.55;;;21.80;99.90;;;;;;4417289;32;20138;-76
2021/06/25 09:32:49;;;;;;;0.40;0.40;;;21.80;99.90;;;;;;4415784;32;20425;-76
2021/06/25 09:35:17;;;;;;;0.45;0.45;;;21.70;99.90;;;;;;4428445;32;20448;-76
2021/06/25 09:37:46;;;;;;;0.43;0.43;;;21.60;99.90;;;;;;4430058;32;20057;-76
2021/06/25 09:40:13;;;;;;;0.93;0.32;;;21.90;99.90;;;;;;4428397;32;79655;-76
2021/06/25 09:42:42;;;;;;;0.43;0.43;;;22.30;99.90;;;;;;4429878;32;20089;-76
2021/06/25 09:45:13;;;;;;;0.40;0.40;;;22.30;99.90;;;;;;4431077;32;20062;-76
2021/06/25 09:47:42;;;;;;;0.47;0.32;;;22.40;99.90;;;;;;4424280;32;20054;-76
2021/06/25 09:50:12;;;;;;;0.82;0.82;;;22.40;99.90;;;;;;4416921;32;20078;-76
2021/06/25 09:52:59;;;;;;;0.50;0.50;;;22.40;99.90;;;;;;4415026;32;20082;-76
2021/06/25 09:55:28;;;;;;;0.40;0.40;;;22.60;99.90;;;;;;4413236;32;20076;-76
2021/06/25 09:59:05;;;;;;;0.30;0.30;;;22.60;99.90;;;;;;4423400;32;20479;-76
2021/06/25 10:01:46;;;;;;;4.20;0.43;;;22.50;99.90;;;;;;4402666;32;20096;-76
2021/06/25 10:03:57;;;;;;;0.20;0.20;;;22.50;99.90;;;;;;4403980;32;20081;-76
2021/06/25 10:06:25;;;;;;;0.30;0.30;;;22.40;99.90;;;;;;4415570;32;20065;-76
2021/06/25 10:08:52;;;;;;;0.37;0.37;;;22.30;99.90;;;;;;4414584;32;20074;-75
2021/06/25 10:11:20;;;;;;;0.37;0.37;;;22.10;99.90;;;;;;4414013;32;20058;-76
2021/06/25 10:13:47;;;;;;;0.45;0.43;;;22.10;99.90;;;;;;4415467;32;20086;-76
2021/06/25 10:16:12;;;;;;;0.30;0.30;;;22.10;99.90;;;;;;4415334;32;20062;-76
2021/06/25 10:18:41;;;;;;;0.57;0.40;;;22.00;99.90;;;;;;4415238;32;20082;-75
2021/06/25 10:21:10;;;;;;;0.37;0.37;;;22.00;99.90;;;;;;4415562;32;20078;-76
2021/06/25 10:23:37;;;;;;;0.32;0.32;;;21.90;99.90;;;;;;4415795;32;20077;-76
2021/06/25 10:26:07;;;;;;;0.80;0.40;;;21.90;99.90;;;;;;4414322;32;20064;-76
2021/06/25 10:28:35;;;;;;;7.80;0.50;;;22.10;99.90;;;;;;4415014;32;20069;-76
2021/06/25 10:31:01;;;;;;;0.50;0.47;;;22.50;99.90;;;;;;4414360;32;20496;-76
2021/06/25 10:33:29;;;;;;;0.43;0.43;;;22.80;99.90;;;;;;4414741;32;20062;-76
2021/06/25 10:35:55;;;;;;;0.30;0.30;;;23.10;99.90;;;;;;4415096;32;20062;-76
2021/06/25 10:38:26;;;;;;;4.15;1.27;;;23.30;99.90;;;;;;4413816;32;20124;-76
2021/06/25 10:40:56;;;;;;;0.65;0.55;;;23.50;99.90;;;;;;4414963;32;20062;-76
2021/06/25 10:43:43;;;;;;;0.57;0.45;;;23.50;99.90;;;;;;4414909;32;20078;-75
2021/06/25 10:46:28;;;;;;;0.77;0.65;;;23.30;99.90;;;;;;4403931;32;20061;-75
2021/06/25 10:48:56;;;;;;;0.62;0.62;;;23.10;99.90;;;;;;4414499;32;20493;-75
2021/06/25 10:51:24;;;;;;;0.40;0.40;;;22.90;99.90;;;;;;4415099;32;20069;-76
2021/06/25 10:54:11;;;;;;;0.40;0.32;;;22.70;99.90;;;;;;4414473;32;20128;-76
2021/06/25 10:56:38;;;;;;;1.45;0.88;;;22.60;99.90;;;;;;4402120;32;20073;-76
2021/06/25 10:59:26;;;;;;;0.62;0.57;;;22.60;99.90;;;;;;4428033;32;20097;-76
2021/06/25 11:01:55;;;;;;;0.35;0.35;;;23.20;99.90;;;;;;4418996;32;20134;-75
2021/06/25 11:04:39;;;;;;;0.28;0.28;;;23.60;99.90;;;;;;4429759;32;20066;-76
2021/06/25 11:07:08;;;;;;;0.30;0.30;;;23.60;99.90;;;;;;4428086;32;20065;-76
2021/06/25 11:09:52;;;;;;;0.28;0.28;;;23.50;99.90;;;;;;4430790;32;20076;-76
2021/06/25 11:12:37;;;;;;;0.40;0.40;;;23.40;99.90;;;;;;4429194;32;20510;-76
2021/06/25 11:15:05;;;;;;;0.28;0.28;;;23.20;99.90;;;;;;4429794;32;20069;-77
2021/06/25 11:17:53;;;;;;;0.40;0.40;;;23.20;99.90;;;;;;4430799;32;20069;-76
2021/06/25 11:20:23;;;;;;;0.20;0.20;;;23.10;99.90;;;;;;4418894;32;20510;-76
2021/06/25 11:23:10;;;;;;;0.30;0.30;;;23.10;99.90;;;;;;4429443;32;20428;-76
2021/06/25 11:25:39;;;;;;;0.40;0.40;;;22.90;99.90;;;;;;4418170;32;20069;-76
2021/06/25 11:28:41;;;;;;;1.52;0.35;;;23.00;99.90;;;;;;4428931;32;20509;-76
2021/06/25 11:31:17;;;;;;;0.65;0.55;;;23.00;99.90;;;;;;4419051;32;20552;-76
2021/06/25 11:33:50;;;;;;;0.28;0.28;;;22.90;99.90;;;;;;4413466;32;20082;-76
2021/06/25 11:36:21;;;;;;;0.30;0.30;;;22.90;99.90;;;;;;4414498;32;20112;-76
2021/06/25 11:38:57;;;;;;;5.72;0.70;;;22.90;99.90;;;;;;4413265;32;20079;-76
2021/06/25 11:41:26;;;;;;;0.30;0.30;;;22.90;99.90;;;;;;4413735;32;20125;-76
2021/06/25 11:43:53;;;;;;;0.62;0.30;;;22.80;99.90;;;;;;4413965;32;20444;-76
2021/06/25 11:46:19;;;;;;;0.30;0.30;;;23.00;99.90;;;;;;4415865;32;20103;-76
2021/06/25 11:48:45;;;;;;;0.15;0.15;;;23.70;99.90;;;;;;4429797;32;20060;-76
2021/06/25 11:51:13;;;;;;;0.15;0.15;;;24.40;99.90;;;;;;4429756;32;20070;-76
2021/06/25 11:53:43;;;;;;;0.30;0.30;;;24.50;99.70;;;;;;4431568;32;20535;-76
2021/06/25 11:56:18;;;;;;;0.25;0.25;;;24.50;99.60;;;;;;4416188;32;20077;-76
2021/06/25 11:59:04;;;;;;;0.65;0.52;;;24.70;99.90;;;;;;4428837;32;20073;-76
2021/06/25 12:01:30;;;;;;;0.28;0.28;;;25.60;98.20;;;;;;4431889;32;20068;-76
2021/06/25 12:03:57;;;;;;;0.20;0.20;;;25.50;97.00;;;;;;4431796;32;20070;-76
2021/06/25 12:06:23;;;;;;;0.03;0.03;;;25.80;97.00;;;;;;4430977;32;20127;-76
2021/06/25 12:09:00;;;;;;;0.20;0.20;;;26.50;95.00;;;;;;4430881;32;20065;-76
2021/06/25 12:11:28;;;;;;;0.10;0.10;;;26.90;94.00;;;;;;4432475;32;20069;-76
2021/06/25 12:13:55;;;;;;;0.13;0.10;;;26.40;94.00;;;;;;4431694;32;20069;-76
2021/06/25 12:16:21;;;;;;;0.10;0.10;;;26.60;94.00;;;;;;4431553;32;20081;-76
2021/06/25 12:18:46;;;;;;;0.10;0.10;;;26.50;92.90;;;;;;4432287;32;20464;-76
2021/06/25 12:21:15;;;;;;;0.20;0.20;;;26.60;92.60;;;;;;4431287;32;20128;-76
2021/06/25 12:23:41;;;;;;;0.10;0.10;;;27.00;91.60;;;;;;4431173;32;20082;-76
2021/06/25 12:26:09;;;;;;;0.25;0.13;;;27.00;91.80;;;;;;4431133;32;20569;-76
2021/06/25 12:28:35;;;;;;;2.28;0.57;;;27.60;90.50;;;;;;4432467;32;20082;-76
2021/06/25 12:31:09;;;;;;;0.20;0.20;;;28.00;87.80;;;;;;4432283;32;20082;-76
2021/06/25 12:33:36;;;;;;;0.10;0.10;;;28.70;90.20;;;;;;4416191;32;20066;-76
2021/06/25 12:36:02;;;;;;;0.40;0.40;;;29.10;87.20;;;;;;4416653;32;20173;-76
2021/06/25 12:38:30;;;;;;;1.10;0.32;;;29.00;86.60;;;;;;4415281;32;20101;-76
2021/06/25 12:41:01;;;;;;;0.73;0.25;;;28.40;86.50;;;;;;4415792;32;20405;-76
2021/06/25 12:43:30;;;;;;;0.20;0.20;;;27.60;88.40;;;;;;4415638;32;20061;-76
2021/06/25 12:46:00;;;;;;;0.30;0.30;;;27.40;90.20;;;;;;4415831;32;20074;-76
2021/06/25 12:48:27;;;;;;;0.75;0.47;;;27.80;89.70;;;;;;4430615;32;20081;-76
2021/06/25 12:51:14;;;;;;;0.13;0.08;;;28.40;86.00;;;;;;4432740;32;20521;-76
2021/06/25 12:53:43;;;;;;;0.50;0.40;;;29.00;85.50;;;;;;4419575;32;20454;-76
2021/06/25 12:56:12;;;;;;;0.03;0.03;;;29.60;83.40;;;;;;4416916;32;20078;-76
2021/06/25 12:58:40;;;;;;;0.10;0.10;;;30.10;81.80;;;;;;4426895;32;20094;-76
2021/06/25 13:01:07;;;;;;;0.10;0.10;;;30.20;79.40;;;;;;4430268;32;20074;-76